createdAt,value
2024-01-30T00:02:14.143Z,16.27
2024-01-30T00:04:41.175Z,18.73
2024-01-30T00:07:08.393Z,16.77
2024-01-30T00:09:35.447Z,16.73
2024-01-30T00:12:02.465Z,15.18
2024-01-30T00:14:29.688Z,16.23
2024-01-30T00:16:56.648Z,17.02
2024-01-30T00:19:23.729Z,14.95
2024-01-30T00:21:51.132Z,15.10
2024-01-30T00:24:19.817Z,15.02
2024-01-30T00:26:46.777Z,16.27
2024-01-30T00:29:20.515Z,15.20
2024-01-30T00:31:47.686Z,15.50
2024-01-30T00:34:14.922Z,16.60
2024-01-30T00:36:41.983Z,16.75
2024-01-30T00:39:10.415Z,15.63
2024-01-30T00:41:37.400Z,16.95
2024-01-30T00:44:04.478Z,15.80
2024-01-30T00:46:31.418Z,16.15
2024-01-30T00:48:58.438Z,15.43
2024-01-30T00:51:25.697Z,17.08
2024-01-30T00:53:52.677Z,15.35
2024-01-30T00:56:20.410Z,15.32
2024-01-30T00:58:47.497Z,13.90
2024-01-30T01:01:14.552Z,13.60
2024-01-30T01:03:42.473Z,16.13
2024-01-30T01:06:09.785Z,15.48
2024-01-30T01:08:37.199Z,15.23
2024-01-30T01:11:04.773Z,15.55
2024-01-30T01:13:34.196Z,16.30
2024-01-30T01:16:01.129Z,14.73
2024-01-30T01:18:28.559Z,15.43
2024-01-30T01:20:55.639Z,16.20
2024-01-30T01:23:23.689Z,16.70
2024-01-30T01:25:50.813Z,15.63
2024-01-30T01:28:17.906Z,14.88
2024-01-30T01:30:44.981Z,14.57
2024-01-30T01:33:11.960Z,14.30
2024-01-30T01:35:38.955Z,14.65
2024-01-30T01:38:05.876Z,14.93
2024-01-30T01:40:32.849Z,15.40
2024-01-30T01:42:59.912Z,15.75
2024-01-30T01:45:26.905Z,14.23
2024-01-30T01:47:54.211Z,13.70
2024-01-30T01:50:22.223Z,15.40
2024-01-30T01:52:49.928Z,16.00
2024-01-30T01:55:17.376Z,16.00
2024-01-30T01:57:46.482Z,15.55
2024-01-30T02:00:13.816Z,14.70
2024-01-30T02:02:40.715Z,13.82
2024-01-30T02:05:07.975Z,15.15
2024-01-30T02:07:34.965Z,15.25
2024-01-30T02:10:02.032Z,16.00
2024-01-30T02:12:29.255Z,16.65
2024-01-30T02:14:56.478Z,16.58
2024-01-30T02:17:24.684Z,17.75
2024-01-30T02:19:51.817Z,17.05
2024-01-30T02:22:19.605Z,17.48
2024-01-30T02:24:46.566Z,19.33
2024-01-30T02:27:13.580Z,18.35
2024-01-30T02:29:40.482Z,19.15
2024-01-30T02:32:08.151Z,16.65
2024-01-30T02:34:35.207Z,17.60
2024-01-30T02:37:02.486Z,19.02
2024-01-30T02:39:30.785Z,21.33
2024-01-30T02:41:58.318Z,22.73
2024-01-30T02:44:25.240Z,24.52
2024-01-30T02:46:52.468Z,22.35
2024-01-30T02:49:19.519Z,22.00
2024-01-30T02:51:48.101Z,23.60
2024-01-30T02:54:15.066Z,22.98
2024-01-30T02:56:42.107Z,23.33
2024-01-30T02:59:08.996Z,22.10
2024-01-30T03:01:43.372Z,22.05
2024-01-30T03:04:10.417Z,25.08
2024-01-30T03:06:37.366Z,24.90
2024-01-30T03:09:06.032Z,24.35
2024-01-30T03:11:32.959Z,21.85
2024-01-30T03:13:59.899Z,22.30
2024-01-30T03:16:27.017Z,21.25
2024-01-30T03:18:54.066Z,21.80
2024-01-30T03:21:22.816Z,20.92
2024-01-30T03:23:49.838Z,20.85
2024-01-30T03:26:16.746Z,19.98
2024-01-30T03:28:43.628Z,20.48
2024-01-30T03:31:10.723Z,20.23
2024-01-30T03:33:37.858Z,21.45
2024-01-30T03:36:05.850Z,19.90
2024-01-30T03:38:52.789Z,21.80
2024-01-30T03:41:19.740Z,19.80
2024-01-30T03:43:46.652Z,19.92
2024-01-30T03:46:14.073Z,18.67
2024-01-30T03:48:41.232Z,16.00
2024-01-30T03:51:08.634Z,17.08
2024-01-30T03:53:35.675Z,16.40
2024-01-30T03:56:02.600Z,16.15
2024-01-30T03:58:29.547Z,16.90
2024-01-30T04:00:59.140Z,16.27
2024-01-30T04:03:26.173Z,14.00
2024-01-30T04:05:53.834Z,13.25
2024-01-30T04:08:20.997Z,14.85
2024-01-30T04:10:48.228Z,14.05
2024-01-30T04:13:15.248Z,15.10
2024-01-30T04:15:42.365Z,13.65
2024-01-30T04:18:10.328Z,14.57
2024-01-30T04:20:37.762Z,14.90
2024-01-30T04:23:04.828Z,14.45
2024-01-30T04:25:31.781Z,14.68
2024-01-30T04:27:58.892Z,15.25
2024-01-30T04:30:25.936Z,15.25
2024-01-30T04:32:52.908Z,14.70
2024-01-30T04:35:22.028Z,15.45
2024-01-30T04:37:49.076Z,17.08
2024-01-30T04:40:16.111Z,18.13
2024-01-30T04:42:43.092Z,16.80
2024-01-30T04:45:10.366Z,17.65
2024-01-30T04:47:37.811Z,19.75
2024-01-30T04:50:06.211Z,18.17
2024-01-30T04:52:33.420Z,18.23
2024-01-30T04:55:00.624Z,19.38
2024-01-30T04:57:27.634Z,17.05
2024-01-30T04:59:54.759Z,16.60
2024-01-30T05:02:21.703Z,16.63
2024-01-30T05:04:48.731Z,14.48
2024-01-30T05:07:15.897Z,14.68
2024-01-30T05:09:42.919Z,14.93
2024-01-30T05:12:09.862Z,14.38
2024-01-30T05:14:36.840Z,15.07
2024-01-30T05:17:04.338Z,14.35
2024-01-30T05:19:31.535Z,14.02
2024-01-30T05:21:58.727Z,12.88
2024-01-30T05:24:27.636Z,14.73
2024-01-30T05:26:55.009Z,16.65
2024-01-30T05:29:21.984Z,17.08
2024-01-30T05:31:48.979Z,17.73
2024-01-30T05:34:16.014Z,17.20
2024-01-30T05:36:43.103Z,16.42
2024-01-30T05:39:10.081Z,16.38
2024-01-30T05:41:37.073Z,14.48
2024-01-30T05:44:04.286Z,17.17
2024-01-30T05:46:31.262Z,17.52
2024-01-30T05:48:58.352Z,20.25
2024-01-30T05:51:25.474Z,28.58
2024-01-30T05:53:52.578Z,27.55
2024-01-30T05:56:19.486Z,28.77
2024-01-30T05:58:46.725Z,29.88
2024-01-30T06:01:13.751Z,31.40
2024-01-30T06:03:40.870Z,28.15
2024-01-30T06:06:07.953Z,23.27
2024-01-30T06:08:34.870Z,19.80
2024-01-30T06:11:02.129Z,16.10
2024-01-30T06:13:29.193Z,21.52
2024-01-30T06:15:56.206Z,16.02
2024-01-30T06:18:23.266Z,17.23
2024-01-30T06:20:50.825Z,16.73
2024-01-30T06:23:17.758Z,13.52
2024-01-30T06:25:44.750Z,16.67
2024-01-30T06:28:11.803Z,18.00
2024-01-30T06:30:38.789Z,15.27
2024-01-30T06:33:05.862Z,16.00
2024-01-30T06:35:32.911Z,15.75
2024-01-30T06:38:00.035Z,14.88
2024-01-30T06:40:27.039Z,14.20
2024-01-30T06:42:54.182Z,14.23
2024-01-30T06:45:21.202Z,10.90
2024-01-30T06:47:48.193Z,13.52
2024-01-30T06:50:18.233Z,31.27
2024-01-30T06:52:46.346Z,24.60
2024-01-30T06:55:13.378Z,16.58
2024-01-30T06:57:41.684Z,15.52
2024-01-30T07:00:08.984Z,22.98
2024-01-30T07:02:38.359Z,20.70
2024-01-30T07:05:05.773Z,16.90
2024-01-30T07:07:35.463Z,20.10
2024-01-30T07:10:02.935Z,19.17
2024-01-30T07:12:31.815Z,15.77
2024-01-30T07:15:00.846Z,12.95
2024-01-30T07:17:30.462Z,12.95
2024-01-30T07:19:57.661Z,10.02
2024-01-30T07:22:24.839Z,10.30
2024-01-30T07:24:53.377Z,12.90
2024-01-30T07:27:20.560Z,11.25
2024-01-30T07:29:47.801Z,12.85
2024-01-30T07:32:14.760Z,15.52
2024-01-30T07:34:49.663Z,14.20
2024-01-30T07:37:26.023Z,12.30
2024-01-30T07:39:53.088Z,15.07
2024-01-30T07:42:20.038Z,13.35
2024-01-30T07:44:46.933Z,13.80
2024-01-30T07:47:13.930Z,14.60
2024-01-30T07:49:40.993Z,12.18
2024-01-30T07:52:08.427Z,13.35
2024-01-30T07:54:38.170Z,9.88
2024-01-30T07:57:05.227Z,7.68
2024-01-30T07:59:32.142Z,6.53
2024-01-30T08:01:59.423Z,9.65
2024-01-30T08:04:26.443Z,9.57
2024-01-30T08:06:53.602Z,10.02
2024-01-30T08:09:20.658Z,9.98
2024-01-30T08:11:47.802Z,6.95
2024-01-30T08:14:15.629Z,7.25
2024-01-30T08:16:42.700Z,9.02
2024-01-30T08:19:09.825Z,6.20
2024-01-30T08:21:39.662Z,6.75
2024-01-30T08:24:07.523Z,6.47
2024-01-30T08:26:35.006Z,6.13
2024-01-30T08:29:04.917Z,8.73
2024-01-30T08:31:32.178Z,8.25
2024-01-30T08:33:59.947Z,8.05
2024-01-30T08:36:26.984Z,9.40
2024-01-30T08:38:57.898Z,15.27
2024-01-30T08:41:27.756Z,7.20
2024-01-30T08:43:55.572Z,6.38
2024-01-30T08:46:22.721Z,5.88
2024-01-30T08:48:50.093Z,9.88
2024-01-30T08:51:17.282Z,5.70
2024-01-30T08:53:44.387Z,12.77
2024-01-30T08:56:11.462Z,7.38
2024-01-30T08:58:38.529Z,5.20
2024-01-30T09:01:06.812Z,6.35
2024-01-30T09:03:34.100Z,9.60
2024-01-30T09:06:01.175Z,5.68
2024-01-30T09:08:28.189Z,7.40
2024-01-30T09:10:56.187Z,8.73
2024-01-30T09:13:23.437Z,11.23
2024-01-30T09:15:50.494Z,8.88
2024-01-30T09:18:17.775Z,12.13
2024-01-30T09:20:46.701Z,9.40
2024-01-30T09:23:13.673Z,7.95
2024-01-30T09:25:40.646Z,10.50
2024-01-30T09:28:08.190Z,9.15
2024-01-30T09:30:35.177Z,5.40
2024-01-30T09:33:02.203Z,15.20
2024-01-30T09:35:30.085Z,5.18
2024-01-30T09:37:58.587Z,7.65
2024-01-30T09:40:25.681Z,12.65
2024-01-30T09:42:52.770Z,8.27
2024-01-30T09:45:20.174Z,6.97
2024-01-30T09:47:47.748Z,6.40
2024-01-30T09:50:15.448Z,4.88
2024-01-30T09:52:43.449Z,6.43
2024-01-30T09:55:10.508Z,10.93
2024-01-30T09:57:38.554Z,21.02
2024-01-30T10:00:10.551Z,10.95
2024-01-30T10:02:37.746Z,7.00
2024-01-30T10:05:04.948Z,7.82
2024-01-30T10:07:32.228Z,8.98
2024-01-30T10:09:59.435Z,7.72
2024-01-30T10:12:31.045Z,9.43
2024-01-30T10:14:58.834Z,7.65
2024-01-30T10:17:32.711Z,12.18
2024-01-30T10:20:02.002Z,9.20
2024-01-30T10:22:29.677Z,9.73
2024-01-30T10:24:56.935Z,12.98
2024-01-30T10:27:27.988Z,8.25
2024-01-30T10:29:54.961Z,9.10
2024-01-30T10:32:22.416Z,9.93
2024-01-30T10:34:49.531Z,15.93
2024-01-30T10:37:17.972Z,10.55
2024-01-30T10:39:46.205Z,9.43
2024-01-30T10:42:15.904Z,12.05
2024-01-30T10:44:51.002Z,7.88
2024-01-30T10:47:19.629Z,9.57
2024-01-30T10:49:48.110Z,8.75
2024-01-30T10:52:15.726Z,8.13
2024-01-30T10:54:45.735Z,7.32
2024-01-30T10:57:14.003Z,10.80
2024-01-30T10:59:41.197Z,8.90
2024-01-30T11:02:08.487Z,10.43
2024-01-30T11:04:37.291Z,7.93
2024-01-30T11:07:05.440Z,6.65
2024-01-30T11:09:39.680Z,9.30
2024-01-30T11:12:06.750Z,11.85
2024-01-30T11:14:34.299Z,10.02
2024-01-30T11:17:01.642Z,8.40
2024-01-30T11:19:29.409Z,9.82
2024-01-30T11:21:58.411Z,6.40
2024-01-30T11:24:25.906Z,8.75
2024-01-30T11:26:59.574Z,8.13
2024-01-30T11:29:26.974Z,10.05
2024-01-30T11:31:55.073Z,7.75
2024-01-30T11:34:23.324Z,8.10
2024-01-30T11:36:56.461Z,8.50
2024-01-30T11:39:24.371Z,6.78
2024-01-30T11:41:52.260Z,9.05
2024-01-30T11:44:19.669Z,8.27
2024-01-30T11:46:46.649Z,9.15
2024-01-30T11:49:13.817Z,9.68
2024-01-30T11:51:41.080Z,8.23
2024-01-30T11:54:08.634Z,9.10
2024-01-30T11:56:35.570Z,13.07
2024-01-30T11:59:02.578Z,12.50
2024-01-30T12:01:31.763Z,7.80
2024-01-30T12:04:01.738Z,7.27
2024-01-30T12:06:29.336Z,6.97
2024-01-30T12:09:00.428Z,7.18
2024-01-30T12:11:28.600Z,7.72
2024-01-30T12:13:55.702Z,7.88
2024-01-30T12:16:22.950Z,7.70
2024-01-30T12:18:50.942Z,9.48
2024-01-30T12:21:19.288Z,6.68
2024-01-30T12:23:46.465Z,6.55
2024-01-30T12:26:13.625Z,7.75
2024-01-30T12:28:48.985Z,8.40
2024-01-30T12:31:17.009Z,6.50
2024-01-30T12:33:44.155Z,8.95
2024-01-30T12:36:12.694Z,6.03
2024-01-30T12:38:39.784Z,7.45
2024-01-30T12:41:08.101Z,7.00
2024-01-30T12:43:38.717Z,8.73
2024-01-30T12:46:07.434Z,7.10
2024-01-30T12:48:34.764Z,7.75
2024-01-30T12:51:01.995Z,7.38
2024-01-30T12:53:29.377Z,8.23
2024-01-30T12:55:56.314Z,9.55
2024-01-30T12:58:23.410Z,10.00
2024-01-30T13:00:50.604Z,8.48
2024-01-30T13:03:17.745Z,8.23
2024-01-30T13:05:44.748Z,8.45
2024-01-30T13:08:11.882Z,7.65
2024-01-30T13:10:41.517Z,9.35
2024-01-30T13:13:14.590Z,8.02
2024-01-30T13:15:46.386Z,9.00
2024-01-30T13:18:13.470Z,10.10
2024-01-30T13:20:40.523Z,8.38
2024-01-30T13:23:07.665Z,12.05
2024-01-30T13:25:34.620Z,7.75
2024-01-30T13:28:02.692Z,11.65
2024-01-30T13:30:29.797Z,8.75
2024-01-30T13:32:56.984Z,7.43
2024-01-30T13:35:23.974Z,8.23
2024-01-30T13:37:51.042Z,12.07
2024-01-30T13:40:18.166Z,12.90
2024-01-30T13:42:45.176Z,10.90
2024-01-30T13:45:12.433Z,9.63
2024-01-30T13:47:39.889Z,11.50
2024-01-30T13:50:07.312Z,8.30
2024-01-30T13:52:41.339Z,10.60
2024-01-30T13:55:12.243Z,11.00
2024-01-30T13:57:39.790Z,9.05
2024-01-30T14:00:10.278Z,10.15
2024-01-30T14:02:37.357Z,8.63
2024-01-30T14:05:06.277Z,8.68
2024-01-30T14:07:33.988Z,6.97
2024-01-30T14:10:01.560Z,8.13
2024-01-30T14:12:28.864Z,8.18
2024-01-30T14:14:55.821Z,9.98
2024-01-30T14:17:22.840Z,13.35
2024-01-30T14:19:49.856Z,11.25
2024-01-30T14:22:17.884Z,9.23
2024-01-30T14:24:44.914Z,10.10
2024-01-30T14:27:13.560Z,8.00
2024-01-30T14:29:40.504Z,10.90
2024-01-30T14:32:09.096Z,12.88
2024-01-30T14:34:36.921Z,11.98
2024-01-30T14:37:04.074Z,13.32
2024-01-30T14:39:31.049Z,12.65
2024-01-30T14:41:58.195Z,13.82
2024-01-30T14:44:25.429Z,12.18
2024-01-30T14:46:52.979Z,11.13
2024-01-30T14:49:20.303Z,13.15
2024-01-30T14:51:48.093Z,11.40
2024-01-30T14:54:15.068Z,10.02
2024-01-30T14:56:42.390Z,14.23
2024-01-30T14:59:09.368Z,14.25
2024-01-30T15:01:36.392Z,10.82
2024-01-30T15:04:04.050Z,9.98
2024-01-30T15:06:31.822Z,11.80
2024-01-30T15:08:59.036Z,14.35
2024-01-30T15:11:26.171Z,12.25
2024-01-30T15:13:53.195Z,14.07
2024-01-30T15:16:20.336Z,12.75
2024-01-30T15:18:47.591Z,10.98
2024-01-30T15:21:14.834Z,12.23
2024-01-30T15:23:42.040Z,12.88
2024-01-30T15:26:09.106Z,13.23
2024-01-30T15:28:37.909Z,16.80
2024-01-30T15:31:05.805Z,14.35
2024-01-30T15:33:33.719Z,14.30
2024-01-30T15:36:04.220Z,14.55
2024-01-30T15:38:31.251Z,15.47
2024-01-30T15:40:58.456Z,15.38
2024-01-30T15:43:25.665Z,15.15
2024-01-30T15:45:53.034Z,15.02
2024-01-30T15:48:20.914Z,15.10
2024-01-30T15:50:48.111Z,14.85
2024-01-30T15:53:15.165Z,16.55
2024-01-30T15:55:42.348Z,18.58
2024-01-30T15:58:09.576Z,17.17
2024-01-30T16:00:36.846Z,15.20
2024-01-30T16:03:04.008Z,17.20
2024-01-30T16:05:31.121Z,16.70
2024-01-30T16:07:58.331Z,19.48
2024-01-30T16:10:25.718Z,23.70
2024-01-30T16:12:52.861Z,24.75
2024-01-30T16:15:20.128Z,27.15
2024-01-30T16:17:47.341Z,27.80
2024-01-30T16:20:17.221Z,29.55
2024-01-30T16:22:44.326Z,30.08
2024-01-30T16:25:11.850Z,40.50
2024-01-30T16:27:38.980Z,42.10
2024-01-30T16:30:08.404Z,36.67
2024-01-30T16:32:35.442Z,36.70
2024-01-30T16:35:02.535Z,31.98
2024-01-30T16:37:29.620Z,28.20
2024-01-30T16:39:56.668Z,28.33
2024-01-30T16:42:23.628Z,25.33
2024-01-30T16:44:50.630Z,32.33
2024-01-30T16:47:21.852Z,45.58
2024-01-30T16:49:48.855Z,47.63
2024-01-30T16:52:15.907Z,51.60
2024-01-30T16:54:42.926Z,48.00
2024-01-30T16:57:09.879Z,51.65
2024-01-30T16:59:37.005Z,52.50
2024-01-30T17:02:05.018Z,51.95
2024-01-30T17:04:34.251Z,56.05
2024-01-30T17:07:01.695Z,56.10
2024-01-30T17:09:28.663Z,57.75
2024-01-30T17:11:55.735Z,56.95
2024-01-30T17:14:22.780Z,52.30
2024-01-30T17:16:57.024Z,52.67
2024-01-30T17:19:30.255Z,42.55
2024-01-30T17:21:57.475Z,31.70
2024-01-30T17:24:30.451Z,42.85
2024-01-30T17:27:05.476Z,43.63
2024-01-30T17:29:32.768Z,61.78
2024-01-30T17:31:59.704Z,57.88
2024-01-30T17:34:27.569Z,62.35
2024-01-30T17:36:54.629Z,67.00
2024-01-30T17:39:21.810Z,72.28
2024-01-30T17:41:48.910Z,73.30
2024-01-30T17:44:19.457Z,58.38
2024-01-30T17:46:46.394Z,56.27
2024-01-30T17:49:13.559Z,49.25
2024-01-30T17:51:43.785Z,45.20
2024-01-30T17:54:10.754Z,40.90
2024-01-30T17:56:37.776Z,38.65
2024-01-30T17:59:04.714Z,46.53
2024-01-30T18:01:31.668Z,37.38
2024-01-30T18:03:59.648Z,35.90
2024-01-30T18:06:26.825Z,37.40
2024-01-30T18:08:53.834Z,37.20
2024-01-30T18:11:20.889Z,33.85
2024-01-30T18:13:47.815Z,38.30
2024-01-30T18:16:14.769Z,35.83
2024-01-30T18:18:41.783Z,33.55
2024-01-30T18:21:08.880Z,39.83
2024-01-30T18:23:37.131Z,38.50
2024-01-30T18:26:04.203Z,40.05
2024-01-30T18:28:32.091Z,42.03
2024-01-30T18:30:59.209Z,38.97
2024-01-30T18:33:26.498Z,51.72
2024-01-30T18:35:53.590Z,46.22
2024-01-30T18:38:20.583Z,40.42
2024-01-30T18:40:47.678Z,37.50
2024-01-30T18:43:14.731Z,36.50
2024-01-30T18:45:41.823Z,20.77
2024-01-30T18:48:09.036Z,28.33
2024-01-30T18:50:36.007Z,31.40
2024-01-30T18:53:03.486Z,31.08
2024-01-30T18:55:31.146Z,31.40
2024-01-30T18:57:58.233Z,31.48
2024-01-30T19:00:25.184Z,31.58
2024-01-30T19:02:52.161Z,37.78
2024-01-30T19:05:19.319Z,28.98
2024-01-30T19:07:50.658Z,31.92
2024-01-30T19:10:25.651Z,38.30
2024-01-30T19:12:59.537Z,36.95
2024-01-30T19:15:29.011Z,37.05
2024-01-30T19:17:55.962Z,39.70
2024-01-30T19:20:24.427Z,39.30
2024-01-30T19:22:51.562Z,38.58
2024-01-30T19:25:18.495Z,37.83
2024-01-30T19:27:45.593Z,45.25
2024-01-30T19:30:12.965Z,42.58
2024-01-30T19:32:40.957Z,40.88
2024-01-30T19:35:08.095Z,38.88
2024-01-30T19:37:36.599Z,45.03
2024-01-30T19:40:05.675Z,52.05
2024-01-30T19:42:32.752Z,48.10
2024-01-30T19:44:59.828Z,50.53
2024-01-30T19:47:26.850Z,45.05
2024-01-30T19:49:55.077Z,40.55
2024-01-30T19:52:22.133Z,41.25
2024-01-30T19:54:49.128Z,39.90
2024-01-30T19:57:16.211Z,43.03
2024-01-30T19:59:43.211Z,52.10
2024-01-30T20:02:10.342Z,49.78
2024-01-30T20:04:37.481Z,43.33
2024-01-30T20:07:04.714Z,50.22
2024-01-30T20:09:32.445Z,43.35
2024-01-30T20:11:59.351Z,42.10
2024-01-30T20:14:26.323Z,38.17
2024-01-30T20:16:53.250Z,42.47
2024-01-30T20:19:20.344Z,39.15
2024-01-30T20:21:48.397Z,43.60
2024-01-30T20:24:15.406Z,48.13
2024-01-30T20:26:42.318Z,50.83
2024-01-30T20:29:10.366Z,65.47
2024-01-30T20:31:37.529Z,52.53
2024-01-30T20:34:04.865Z,52.03
2024-01-30T20:36:32.008Z,59.28
2024-01-30T20:38:59.019Z,66.57
2024-01-30T20:41:25.935Z,70.00
2024-01-30T20:43:52.959Z,71.30
2024-01-30T20:46:19.922Z,76.38
2024-01-30T20:48:47.015Z,78.47
2024-01-30T20:51:14.158Z,74.88
2024-01-30T20:53:45.203Z,72.68
2024-01-30T20:56:13.992Z,76.35
2024-01-30T20:58:41.402Z,74.15
2024-01-30T21:01:08.589Z,70.20
2024-01-30T21:03:35.625Z,82.07
2024-01-30T21:06:02.680Z,73.43
2024-01-30T21:08:29.682Z,72.97
2024-01-30T21:10:56.711Z,69.90
2024-01-30T21:13:23.783Z,75.00
2024-01-30T21:15:50.815Z,69.95
2024-01-30T21:18:17.842Z,73.68
2024-01-30T21:20:47.195Z,75.07
2024-01-30T21:25:44.537Z,79.05
2024-01-30T21:28:12.887Z,77.97
2024-01-30T21:30:39.920Z,75.65
2024-01-30T21:33:07.227Z,84.97
2024-01-30T21:35:34.243Z,77.30
2024-01-30T21:38:01.252Z,70.15
2024-01-30T21:40:28.385Z,75.07
2024-01-30T21:42:55.366Z,69.07
2024-01-30T21:45:25.046Z,72.15
2024-01-30T21:47:52.068Z,64.63
2024-01-30T21:50:21.933Z,63.58
2024-01-30T21:52:48.992Z,63.67
2024-01-30T21:55:16.094Z,71.97
2024-01-30T21:57:44.097Z,65.85
2024-01-30T22:00:11.873Z,70.28
2024-01-30T22:02:38.885Z,67.25
2024-01-30T22:05:06.135Z,74.75
2024-01-30T22:07:33.274Z,74.43
2024-01-30T22:10:00.533Z,75.20
2024-01-30T22:12:27.574Z,69.88
2024-01-30T22:14:54.529Z,69.28
2024-01-30T22:17:22.851Z,60.28
2024-01-30T22:19:49.853Z,48.10
2024-01-30T22:22:16.902Z,46.45
2024-01-30T22:24:44.012Z,47.65
2024-01-30T22:27:11.081Z,48.10
2024-01-30T22:29:38.480Z,53.85
2024-01-30T22:32:05.757Z,59.08
2024-01-30T22:34:32.768Z,55.38
2024-01-30T22:36:59.789Z,58.90
2024-01-30T22:39:26.844Z,59.40
2024-01-30T22:41:53.842Z,55.10
2024-01-30T22:44:21.935Z,50.00
2024-01-30T22:46:49.019Z,52.80
2024-01-30T22:49:16.086Z,50.80
2024-01-30T22:51:44.306Z,51.38
2024-01-30T22:54:11.318Z,57.05
2024-01-30T22:56:38.492Z,57.58
2024-01-30T22:59:05.505Z,58.13
2024-01-30T23:01:32.936Z,55.80
2024-01-30T23:04:00.093Z,51.90
2024-01-30T23:06:27.108Z,48.67
2024-01-30T23:08:54.086Z,48.42
2024-01-30T23:11:20.986Z,42.92
2024-01-30T23:13:47.928Z,39.85
2024-01-30T23:16:15.010Z,36.78
2024-01-30T23:18:42.155Z,39.17
2024-01-30T23:21:09.128Z,39.47
2024-01-30T23:23:36.203Z,38.65
2024-01-30T23:26:04.608Z,38.90
2024-01-30T23:28:31.625Z,43.13
2024-01-30T23:30:58.939Z,45.95
2024-01-30T23:33:26.067Z,53.20
2024-01-30T23:35:53.262Z,51.20
2024-01-30T23:38:20.307Z,48.50
2024-01-30T23:40:49.642Z,45.88
2024-01-30T23:43:16.736Z,40.97
2024-01-30T23:45:44.680Z,38.47
2024-01-30T23:48:11.874Z,33.95
2024-01-30T23:50:38.904Z,33.80
2024-01-30T23:53:07.152Z,31.73
2024-01-30T23:55:34.438Z,29.52
2024-01-30T23:58:01.493Z,29.55
